Time;durP1;ratioP1;P1;durP2;ratioP2;P2;SDS_P1;SDS_P2;PMS_P1;PMS_P2;Temp;Humidity;BMP_temperature;BMP_pressure;BME280_temperature;BME280_humidity;BME280_pressure;Samples;Min_cycle;Max_cycle;Signal;HPM_P1;HPM_P2
2022/08/14 00:01:58;;;;;;;8.93;6.45;;;;;;;20.09;98.07;100477.06;6265812;28;20046;-92
2022/08/14 00:05:04;;;;;;;9.18;6.45;;;;;;;20.07;98.23;100477.25;6255831;28;20206;-92
2022/08/14 00:08:05;;;;;;;7.03;6.32;;;;;;;20.05;98.45;100481.03;6265380;28;20760;-92
2022/08/14 00:11:15;;;;;;;6.90;6.05;;;;;;;19.99;98.35;100486.03;6259088;28;20045;-92
2022/08/14 00:14:17;;;;;;;7.78;6.93;;;;;;;19.97;98.87;100484.59;6238289;28;20038;-92
2022/08/14 00:17:19;;;;;;;7.10;6.40;;;;;;;19.94;99.31;100493.66;6248327;28;20041;-92
2022/08/14 00:20:26;;;;;;;8.13;6.65;;;;;;;19.91;99.94;100487.97;6266454;28;20414;-92
2022/08/14 00:23:36;;;;;;;8.38;6.70;;;;;;;19.88;100.00;100497.03;6256265;28;20377;-92
2022/08/14 00:26:39;;;;;;;9.82;6.55;;;;;;;19.86;100.00;100495.59;6289488;28;20051;-92
2022/08/14 00:29:40;;;;;;;11.73;6.75;;;;;;;19.83;100.00;100498.59;6253971;28;20131;-92
2022/08/14 00:32:44;;;;;;;8.32;7.38;;;;;;;19.81;100.00;100496.13;6245798;28;20128;-92
2022/08/14 00:35:57;;;;;;;9.25;7.50;;;;;;;19.79;100.00;100490.25;6259252;28;20045;-92
2022/08/14 00:39:19;;;;;;;10.43;7.18;;;;;;;19.77;100.00;100484.34;6255232;28;20159;-92
2022/08/14 00:42:22;;;;;;;7.70;7.00;;;;;;;19.76;100.00;100482.72;6263911;28;20411;-91
2022/08/14 00:45:44;;;;;;;8.23;6.80;;;;;;;19.73;100.00;100483.91;6256826;28;20048;-92
2022/08/14 00:48:53;;;;;;;9.50;7.50;;;;;;;19.69;100.00;100484.44;6267445;28;20037;-92
2022/08/14 00:51:59;;;;;;;9.27;6.95;;;;;;;19.64;100.00;100477.09;6251758;28;20037;-92
2022/08/14 00:55:02;;;;;;;8.32;6.90;;;;;;;19.59;100.00;100475.00;6248740;28;20216;-92
2022/08/14 01:01:35;;;;;;;8.80;6.57;;;;;;;19.54;100.00;100468.66;6251474;28;20041;-92
2022/08/14 01:04:38;;;;;;;7.93;7.13;;;;;;;19.53;100.00;100472.31;6257959;28;20049;-92
2022/08/14 01:08:01;;;;;;;8.18;6.85;;;;;;;19.48;100.00;100461.53;6298803;28;20283;-92
2022/08/14 01:11:04;;;;;;;8.20;7.20;;;;;;;19.46;100.00;100459.06;6253653;28;20656;-92
2022/08/14 01:14:06;;;;;;;7.72;6.40;;;;;;;19.43;100.00;100453.34;6251881;28;20104;-92
2022/08/14 01:21:05;;;;;;;7.78;6.97;;;;;;;19.31;100.00;100447.75;6266445;28;21291;-92
2022/08/14 01:24:09;;;;;;;9.18;7.53;;;;;;;19.26;100.00;100450.91;6253884;28;20049;-92
2022/08/14 01:27:20;;;;;;;9.73;6.82;;;;;;;19.19;100.00;100446.56;6249913;28;20049;-92
2022/08/14 01:30:26;;;;;;;9.48;7.63;;;;;;;19.09;100.00;100442.38;6271466;28;20052;-92
2022/08/14 01:33:29;;;;;;;10.52;7.80;;;;;;;19.01;100.00;100439.84;6269020;28;20423;-92
2022/08/14 01:36:52;;;;;;;10.25;8.60;;;;;;;18.96;100.00;100439.56;6275490;28;20036;-92
2022/08/14 01:39:54;;;;;;;10.70;8.30;;;;;;;18.92;100.00;100438.28;6243365;28;20290;-92
2022/08/14 01:42:56;;;;;;;9.63;8.07;;;;;;;18.91;100.00;100434.03;6252917;28;20049;-92
2022/08/14 01:45:59;;;;;;;9.35;7.95;;;;;;;18.88;100.00;100437.84;6258120;28;20048;-92
2022/08/14 01:49:10;;;;;;;10.45;8.68;;;;;;;18.83;100.00;100437.56;6241260;28;20527;-92
2022/08/14 01:52:13;;;;;;;10.18;8.18;;;;;;;18.82;100.00;100435.09;6253325;28;20053;-92
2022/08/14 01:55:37;;;;;;;9.25;8.30;;;;;;;18.76;100.00;100431.38;6252780;28;20068;-92
2022/08/14 01:58:42;;;;;;;11.35;8.40;;;;;;;18.77;100.00;100429.56;6255897;28;20056;-92
2022/08/14 02:02:02;;;;;;;8.95;7.97;;;;;;;18.81;100.00;100425.63;6257780;28;20067;-92
2022/08/14 02:05:04;;;;;;;9.70;7.35;;;;;;;18.88;100.00;100426.50;6257001;28;20037;-92
2022/08/14 02:08:07;;;;;;;9.65;7.90;;;;;;;18.90;100.00;100424.53;6250940;28;20418;-92
2022/08/14 02:11:23;;;;;;;10.27;7.72;;;;;;;18.87;100.00;100414.41;6271660;28;20768;-92
2022/08/14 02:14:25;;;;;;;9.40;7.82;;;;;;;18.86;100.00;100415.41;6261217;28;20036;-92
2022/08/14 02:17:32;;;;;;;9.13;7.32;;;;;;;18.86;100.00;100404.91;6252376;28;20047;-92
2022/08/14 02:20:34;;;;;;;8.65;7.45;;;;;;;18.86;100.00;100412.78;6239594;28;20049;-92
2022/08/14 02:23:38;;;;;;;9.73;7.80;;;;;;;18.84;100.00;100399.84;6245011;28;20049;-92
2022/08/14 02:26:46;;;;;;;8.95;8.05;;;;;;;18.79;100.00;100399.56;6247770;28;20050;-92
2022/08/14 02:30:10;;;;;;;10.70;7.78;;;;;;;18.73;100.00;100403.69;6258502;28;20124;-92
2022/08/14 02:33:14;;;;;;;9.93;7.70;;;;;;;18.69;100.00;100402.41;6254528;28;20124;-92
2022/08/14 02:36:16;;;;;;;9.27;8.07;;;;;;;18.67;100.00;100395.69;6265406;28;20036;-92
2022/08/14 02:39:44;;;;;;;8.40;7.53;;;;;;;18.64;100.00;100399.50;6249702;28;20057;-93
2022/08/14 02:42:47;;;;;;;10.48;8.05;;;;;;;18.64;100.00;100394.25;6265641;28;20152;-92
2022/08/14 02:45:58;;;;;;;8.45;7.55;;;;;;;18.63;100.00;100397.88;6245745;28;20037;-92
2022/08/14 02:49:02;;;;;;;8.68;7.55;;;;;;;18.62;100.00;100387.56;6281901;28;20056;-92
2022/08/14 02:52:07;;;;;;;8.45;7.43;;;;;;;18.59;100.00;100383.47;6242166;28;20052;-92
2022/08/14 02:55:29;;;;;;;9.43;7.38;;;;;;;18.57;100.00;100377.59;6271221;28;20044;-92
2022/08/14 02:58:36;;;;;;;8.80;7.80;;;;;;;18.55;100.00;100376.13;6253272;28;20060;-92
2022/08/14 03:01:44;;;;;;;9.20;7.85;;;;;;;18.50;100.00;100377.47;6251452;28;20041;-92
2022/08/14 03:04:55;;;;;;;8.70;7.80;;;;;;;18.47;100.00;100377.84;6259499;28;20044;-92
2022/08/14 03:08:11;;;;;;;12.27;7.72;;;;;;;18.44;100.00;100367.72;6270235;28;20083;-92
2022/08/14 03:11:17;;;;;;;10.25;8.38;;;;;;;18.42;100.00;100380.16;6266497;28;20255;-92
2022/08/14 03:14:21;;;;;;;10.82;8.35;;;;;;;18.42;100.00;100380.16;6251016;28;20052;-92
2022/08/14 03:17:23;;;;;;;8.80;7.90;;;;;;;18.40;100.00;100374.28;6255387;28;20327;-93
2022/08/14 03:20:27;;;;;;;11.20;8.02;;;;;;;18.38;100.00;100372.81;6263563;28;20037;-92
2022/08/14 03:23:34;;;;;;;9.93;8.18;;;;;;;18.35;100.00;100366.13;6240832;28;20044;-93
2022/08/14 03:26:44;;;;;;;9.05;8.15;;;;;;;18.34;100.00;100368.94;6253468;28;20041;-92
2022/08/14 03:29:47;;;;;;;11.85;8.50;;;;;;;18.32;100.00;100363.06;6245184;28;20083;-92
2022/08/14 03:32:49;;;;;;;13.10;8.82;;;;;;;18.29;100.00;100359.00;6276195;28;20482;-92
2022/08/14 03:35:52;;;;;;;12.07;8.88;;;;;;;18.27;100.00;100369.63;6247511;28;20042;-92
2022/08/14 03:39:17;;;;;;;12.07;9.02;;;;;;;18.26;100.00;100365.41;6259684;28;20048;-92
2022/08/14 03:42:24;;;;;;;10.75;8.55;;;;;;;18.23;100.00;100354.44;6288284;28;20037;-92
2022/08/14 03:45:39;;;;;;;11.43;8.60;;;;;;;18.21;100.00;100359.88;6263186;28;20044;-92
2022/08/14 03:48:49;;;;;;;9.55;8.00;;;;;;;18.21;100.00;100349.38;6295023;28;20233;-92
2022/08/14 03:51:55;;;;;;;8.77;7.68;;;;;;;18.22;100.00;100355.44;6257799;28;20308;-92
2022/08/14 03:54:58;;;;;;;9.93;8.23;;;;;;;18.21;100.00;100352.00;6256078;28;20041;-92
2022/08/14 03:58:00;;;;;;;10.77;8.18;;;;;;;18.18;100.00;100336.63;6263450;28;20633;-92
2022/08/14 04:01:04;;;;;;;9.52;7.38;;;;;;;18.16;100.00;100330.75;6256127;28;20041;-92
2022/08/14 04:04:07;;;;;;;9.65;7.97;;;;;;;18.16;100.00;100327.31;6256048;28;20451;-93
2022/08/14 04:07:09;;;;;;;9.15;8.10;;;;;;;18.14;100.00;100324.88;6258167;28;20037;-92
2022/08/14 04:10:11;;;;;;;12.35;8.50;;;;;;;18.15;100.00;100330.94;6256499;28;20106;-92
2022/08/14 04:13:18;;;;;;;9.13;8.07;;;;;;;18.14;100.00;100331.94;6257029;28;20385;-92
2022/08/14 04:16:24;;;;;;;11.20;8.93;;;;;;;18.14;100.00;100334.53;6268113;28;20119;-92
2022/08/14 04:19:32;;;;;;;12.20;8.27;;;;;;;18.13;100.00;100333.72;6269861;28;20045;-92
2022/08/14 04:22:41;;;;;;;10.02;8.93;;;;;;;18.13;100.00;100328.47;6254572;28;20041;-92
2022/08/14 04:25:44;;;;;;;12.25;9.05;;;;;;;18.12;100.00;100326.84;6253650;28;20052;-92
2022/08/14 04:28:48;;;;;;;11.00;8.40;;;;;;;18.13;100.00;100328.47;6250373;28;20534;-92
2022/08/14 04:32:11;;;;;;;11.25;9.23;;;;;;;18.13;100.00;100328.47;6253982;28;20124;-92
2022/08/14 04:35:37;;;;;;;14.30;9.45;;;;;;;18.14;100.00;100324.88;6259149;28;20065;-92
2022/08/14 04:45:48;;;;;;;13.77;9.20;;;;;;;18.18;100.00;100312.22;6266540;28;20474;-92
2022/08/14 04:48:54;;;;;;;10.30;8.45;;;;;;;18.20;100.00;100318.91;6260925;28;20426;-92
2022/08/14 04:52:03;;;;;;;10.88;8.00;;;;;;;18.24;100.00;100317.59;6249480;28;20076;-92
2022/08/14 04:55:19;;;;;;;11.23;9.00;;;;;;;18.29;100.00;100317.06;6256311;28;20490;-92
2022/08/14 04:58:25;;;;;;;10.75;8.70;;;;;;;18.29;100.00;100310.00;6240149;28;20045;-92
2022/08/14 05:01:34;;;;;;;9.50;8.30;;;;;;;18.29;100.00;100304.78;6245898;28;20053;-92
2022/08/14 05:04:41;;;;;;;10.05;8.35;;;;;;;18.33;100.00;100296.53;6240794;28;20045;-92
2022/08/14 05:08:10;;;;;;;10.70;8.50;;;;;;;18.36;100.00;100296.19;6248863;28;20044;-92
2022/08/14 05:11:34;;;;;;;9.38;8.38;;;;;;;18.40;100.00;100290.41;6247793;28;20481;-92
2022/08/14 05:14:37;;;;;;;14.93;8.27;;;;;;;18.43;100.00;100290.09;6249912;28;20045;-92
2022/08/14 05:17:54;;;;;;;12.15;8.65;;;;;;;18.47;100.00;100287.91;6262563;28;20114;-92
2022/08/14 05:21:16;;;;;;;12.10;8.38;;;;;;;18.50;100.00;100288.34;6247046;28;20048;-92
2022/08/14 05:24:39;;;;;;;11.25;8.85;;;;;;;18.54;100.00;100278.34;6248782;28;20088;-92
2022/08/14 05:27:41;;;;;;;11.57;8.82;;;;;;;18.59;100.00;100280.44;6272625;28;20041;-92
2022/08/14 05:30:45;;;;;;;12.55;9.00;;;;;;;18.61;100.00;100273.19;6241372;28;20045;-92
2022/08/14 05:33:50;;;;;;;10.02;8.95;;;;;;;18.65;100.00;100277.06;6240759;28;20244;-92
2022/08/14 05:37:01;;;;;;;12.48;9.20;;;;;;;18.69;100.00;100271.28;6246476;28;20052;-91
2022/08/14 05:40:04;;;;;;;11.20;9.25;;;;;;;18.73;100.00;100283.06;6262915;28;20055;-92
2022/08/14 05:43:06;;;;;;;10.50;9.02;;;;;;;18.79;100.00;100267.63;6255824;28;20040;-92
2022/08/14 05:46:17;;;;;;;10.00;8.88;;;;;;;18.83;100.00;100264.47;6244588;28;20049;-91
2022/08/14 05:49:18;;;;;;;11.40;8.77;;;;;;;18.88;100.00;100263.88;6246225;28;20055;-92
2022/08/14 05:52:20;;;;;;;12.70;9.00;;;;;;;18.94;100.00;100268.44;6259940;28;20849;-92
2022/08/14 05:55:39;;;;;;;9.15;8.02;;;;;;;19.00;100.00;100264.25;6261682;28;20541;-92
2022/08/14 05:58:45;;;;;;;8.15;7.35;;;;;;;19.09;100.00;100263.97;6256796;28;20050;-92
2022/08/14 06:01:47;;;;;;;10.57;8.18;;;;;;;19.20;100.00;100264.50;6252299;28;20469;-92
2022/08/14 06:04:51;;;;;;;10.25;8.68;;;;;;;19.29;100.00;100264.22;6250238;28;20038;-92
2022/08/14 06:07:53;;;;;;;10.75;8.77;;;;;;;19.39;100.00;100258.66;6252158;28;20041;-92
2022/08/14 06:11:02;;;;;;;11.38;8.93;;;;;;;19.46;100.00;100245.63;6250015;28;20484;-92
2022/08/14 06:14:04;;;;;;;13.65;9.35;;;;;;;19.53;100.00;100242.06;6252301;28;20048;-92
2022/08/14 06:17:13;;;;;;;13.43;9.05;;;;;;;19.59;100.00;100241.28;6250407;28;20221;-92
2022/08/14 06:20:28;;;;;;;11.95;8.98;;;;;;;19.70;100.00;100241.81;6253897;28;20407;-92
2022/08/14 06:23:31;;;;;;;10.18;8.13;;;;;;;19.80;100.00;100247.59;6243977;28;20041;-92
2022/08/14 06:26:32;;;;;;;12.50;8.57;;;;;;;19.90;100.00;100242.00;6263418;28;20068;-92
2022/08/14 06:29:36;;;;;;;9.13;8.07;;;;;;;19.98;100.00;100244.53;6257970;28;20568;-92
2022/08/14 06:32:38;;;;;;;9.45;7.93;;;;;;;20.07;100.00;100250.44;6263775;28;20934;-92
2022/08/14 06:35:43;;;;;;;11.55;8.82;;;;;;;20.14;100.00;100246.06;6271149;28;20033;-92
2022/08/14 06:38:47;;;;;;;10.00;8.55;;;;;;;20.23;100.00;100250.16;6266064;28;20047;-92
2022/08/14 06:41:51;;;;;;;10.18;8.07;;;;;;;20.32;100.00;100243.78;6254982;28;20075;-92
2022/08/14 06:45:00;;;;;;;9.23;7.90;;;;;;;20.46;100.00;100254.38;6267847;28;20032;-92
2022/08/14 06:48:11;;;;;;;10.52;7.68;;;;;;;20.55;100.00;100245.34;6282381;28;20045;-92
2022/08/14 06:51:13;;;;;;;8.65;7.68;;;;;;;20.67;100.00;100246.44;6237462;28;20188;-92
2022/08/14 06:54:15;;;;;;;8.63;7.35;;;;;;;20.75;100.00;100250.72;6270010;28;20483;-92
2022/08/14 06:57:17;;;;;;;9.32;7.50;;;;;;;20.84;100.00;100247.75;6270880;28;20508;-92
2022/08/14 07:00:21;;;;;;;9.00;8.10;;;;;;;20.94;100.00;100254.44;6253534;28;20056;-92
2022/08/14 07:06:53;;;;;;;9.48;8.10;;;;;;;21.11;100.00;100253.09;6261274;28;20041;-93
2022/08/14 07:09:59;;;;;;;9.85;8.25;;;;;;;21.18;100.00;100247.88;6285029;28;20755;-92
2022/08/14 07:13:01;;;;;;;11.60;8.13;;;;;;;21.27;100.00;100239.59;6257655;28;20041;-92
2022/08/14 07:16:05;;;;;;;11.18;8.55;;;;;;;21.39;99.64;100242.50;6257654;28;20130;-92
2022/08/14 07:19:08;;;;;;;9.77;8.00;;;;;;;21.45;98.72;100244.31;6261450;28;20040;-92
2022/08/14 07:22:10;;;;;;;10.43;8.73;;;;;;;21.56;98.03;100245.56;6266934;28;20609;-92
2022/08/14 07:25:21;;;;;;;12.38;8.90;;;;;;;21.65;97.52;100252.25;6261884;28;20041;-92
2022/08/14 07:28:40;;;;;;;12.32;8.45;;;;;;;21.77;96.24;100247.22;6250537;28;20037;-92
2022/08/14 07:31:44;;;;;;;9.55;8.07;;;;;;;21.85;96.16;100244.38;6245781;28;20454;-92
2022/08/14 07:34:48;;;;;;;9.82;8.82;;;;;;;21.90;96.14;100249.84;6268659;28;20045;-92
2022/08/14 07:37:49;;;;;;;10.60;7.50;;;;;;;21.93;96.25;100254.72;6252489;28;20087;-92
2022/08/14 07:40:53;;;;;;;10.10;7.82;;;;;;;21.94;96.02;100250.28;6249008;28;20051;-91
2022/08/14 07:43:56;;;;;;;10.38;8.32;;;;;;;22.04;95.70;100250.69;6298578;28;20083;-92
2022/08/14 07:46:59;;;;;;;11.32;8.82;;;;;;;22.21;94.22;100258.19;6268613;28;20255;-92
2022/08/14 07:50:10;;;;;;;10.05;8.13;;;;;;;22.29;94.01;100261.44;6255482;28;20071;-92
2022/08/14 07:53:18;;;;;;;10.98;8.27;;;;;;;22.43;93.73;100254.28;6250307;28;20475;-92
2022/08/14 07:56:20;;;;;;;10.60;8.32;;;;;;;22.54;93.39;100258.16;6243948;28;20029;-93
2022/08/14 07:59:42;;;;;;;10.88;8.57;;;;;;;22.65;92.84;100256.69;6248822;28;20029;-92
2022/08/14 08:02:51;;;;;;;9.80;8.80;;;;;;;22.72;91.48;100260.13;6240698;28;20037;-92
2022/08/14 08:05:59;;;;;;;13.80;9.40;;;;;;;22.81;90.83;100258.91;6258420;28;20219;-92
2022/08/14 08:09:03;;;;;;;10.38;7.93;;;;;;;22.89;91.03;100255.22;6252943;28;20052;-92
2022/08/14 08:12:06;;;;;;;10.85;8.55;;;;;;;23.01;90.08;100250.94;6247313;28;20128;-92
2022/08/14 08:15:15;;;;;;;11.13;8.57;;;;;;;23.14;89.07;100252.69;6262031;28;20045;-92
2022/08/14 08:18:18;;;;;;;9.52;8.45;;;;;;;23.22;88.83;100253.25;6263803;28;20033;-92
2022/08/14 08:21:28;;;;;;;9.35;8.32;;;;;;;23.31;88.32;100261.75;6260003;28;20037;-93
2022/08/14 08:24:36;;;;;;;9.23;8.32;;;;;;;23.41;87.86;100258.66;6264478;28;20391;-92
2022/08/14 08:27:39;;;;;;;8.85;7.95;;;;;;;23.54;86.84;100249.84;6261757;28;20041;-93
2022/08/14 08:31:00;;;;;;;9.18;8.00;;;;;;;23.63;85.95;100249.38;6269079;28;20418;-92
2022/08/14 08:34:05;;;;;;;9.10;8.20;;;;;;;23.78;86.43;100246.44;6254168;28;20038;-92
2022/08/14 08:37:07;;;;;;;9.88;8.00;;;;;;;23.91;85.33;100250.00;6253880;28;20609;-92
2022/08/14 08:40:10;;;;;;;8.73;7.82;;;;;;;24.00;84.87;100248.69;6252155;28;20044;-92
2022/08/14 08:43:27;;;;;;;8.73;7.57;;;;;;;24.15;83.11;100237.78;6265842;28;20037;-92
2022/08/14 08:46:29;;;;;;;9.32;8.32;;;;;;;24.25;82.55;100240.78;6260778;28;20495;-93
2022/08/14 08:49:42;;;;;;;8.82;7.93;;;;;;;24.38;81.68;100229.25;6253298;28;20037;-93
2022/08/14 08:53:03;;;;;;;8.60;7.80;;;;;;;24.46;80.87;100221.03;6259218;28;20095;-93
2022/08/14 08:56:05;;;;;;;9.23;8.32;;;;;;;24.59;80.14;100207.66;6262686;28;20115;-93
2022/08/14 08:59:25;;;;;;;8.88;8.00;;;;;;;24.67;79.92;100212.66;6274448;28;20106;-93
2022/08/14 09:02:34;;;;;;;9.05;8.15;;;;;;;24.73;79.37;100204.88;6256571;28;20103;-93
2022/08/14 09:05:48;;;;;;;9.57;7.85;;;;;;;24.82;79.09;100209.63;6264725;28;20554;-94
2022/08/14 09:08:54;;;;;;;10.00;9.05;;;;;;;24.89;77.22;100204.22;6269405;28;20048;-93
2022/08/14 09:12:00;;;;;;;9.02;8.13;;;;;;;24.99;77.54;100198.41;6269413;28;20171;-93
2022/08/14 09:15:08;;;;;;;8.68;7.47;;;;;;;25.11;76.36;100196.63;6255622;28;20042;-94
2022/08/14 09:18:16;;;;;;;10.20;7.65;;;;;;;25.21;74.79;100193.44;6240563;28;20043;-94
2022/08/14 09:21:20;;;;;;;9.35;7.25;;;;;;;25.32;73.52;100190.03;6280931;28;20040;-93
2022/08/14 09:24:25;;;;;;;8.10;7.30;;;;;;;25.47;72.98;100179.00;6274367;28;20522;-94
2022/08/14 09:27:44;;;;;;;8.18;7.05;;;;;;;25.54;73.14;100179.72;6254292;28;20041;-93
2022/08/14 09:30:55;;;;;;;9.00;8.00;;;;;;;25.61;73.04;100172.44;6248938;28;20387;-94
2022/08/14 09:34:21;;;;;;;8.77;7.80;;;;;;;25.77;71.39;100168.31;6253923;28;20364;-94
2022/08/14 09:37:42;;;;;;;8.23;7.00;;;;;;;26.01;69.48;100161.19;6253479;28;20526;-94
2022/08/14 09:41:05;;;;;;;7.85;7.05;;;;;;;26.13;69.29;100161.19;6249676;28;20087;-94
2022/08/14 09:44:14;;;;;;;8.38;6.82;;;;;;;26.17;67.69;100154.38;6270774;28;20045;-94
2022/08/14 09:47:44;;;;;;;9.23;7.57;;;;;;;26.18;67.01;100154.13;6262829;28;20439;-94
2022/08/14 09:50:54;;;;;;;7.75;6.95;;;;;;;26.32;66.55;100141.41;6259432;28;20042;-94
2022/08/14 09:54:10;;;;;;;9.77;7.05;;;;;;;26.46;66.31;100143.78;6255692;28;20041;-94
2022/08/14 09:57:26;;;;;;;9.13;7.13;;;;;;;26.49;66.19;100138.84;6296787;28;20131;-93
2022/08/14 10:00:49;;;;;;;8.07;7.03;;;;;;;26.61;64.81;100123.72;6255973;28;20494;-94
2022/08/14 10:03:56;;;;;;;7.68;6.95;;;;;;;26.64;64.92;100133.84;6259628;28;20045;-93
2022/08/14 10:07:00;;;;;;;7.07;6.47;;;;;;;26.76;63.93;100133.00;6257029;28;20044;-94
2022/08/14 10:10:04;;;;;;;7.10;6.40;;;;;;;26.89;62.72;100129.25;6254933;28;20036;-94
2022/08/14 10:13:25;;;;;;;7.55;6.75;;;;;;;27.01;61.86;100125.47;6245813;28;20038;-95
2022/08/14 10:16:51;;;;;;;8.27;6.55;;;;;;;27.00;61.98;100129.16;6246161;28;20052;-95
2022/08/14 10:19:53;;;;;;;6.63;6.03;;;;;;;27.08;60.65;100117.38;6247711;28;20045;-94
2022/08/14 10:23:12;;;;;;;7.15;5.93;;;;;;;27.17;61.27;100115.91;6256959;28;20039;-94
2022/08/14 10:26:24;;;;;;;7.93;6.40;;;;;;;27.35;60.13;100114.09;6251411;28;20449;-94
2022/08/14 10:29:37;;;;;;;8.32;6.35;;;;;;;27.46;59.66;100118.53;6245415;28;20038;-94
2022/08/14 10:32:47;;;;;;;7.60;6.80;;;;;;;27.48;59.65;100109.25;6287541;28;20049;-94
2022/08/14 10:35:52;;;;;;;7.00;6.30;;;;;;;27.40;58.99;100106.19;6254696;28;20186;-94
2022/08/14 10:39:14;;;;;;;7.85;7.03;;;;;;;27.48;59.90;100100.47;6265108;28;20048;-95
2022/08/14 10:42:17;;;;;;;7.95;6.88;;;;;;;27.58;60.05;100092.66;6254499;28;20157;-96
2022/08/14 10:45:25;;;;;;;9.60;7.00;;;;;;;27.79;58.38;100090.25;6261289;28;20151;-94
2022/08/14 10:48:27;;;;;;;7.40;6.72;;;;;;;27.92;58.69;100087.25;6273753;28;20048;-95
2022/08/14 10:51:40;;;;;;;9.18;7.05;;;;;;;28.06;57.84;100082.38;6277120;28;20093;-95
2022/08/14 10:54:44;;;;;;;6.93;6.30;;;;;;;28.33;56.38;100082.44;6263670;28;20069;-95
2022/08/14 10:57:49;;;;;;;8.60;6.47;;;;;;;28.50;55.43;100077.06;6248736;28;20199;-95
2022/08/14 11:01:04;;;;;;;6.85;6.25;;;;;;;28.49;54.38;100065.56;6270493;28;20111;-95
2022/08/14 11:04:18;;;;;;;7.57;6.38;;;;;;;28.61;54.24;100056.66;6259560;28;20117;-95
2022/08/14 11:07:27;;;;;;;8.18;6.57;;;;;;;28.86;53.60;100059.53;6259285;28;20041;-95
2022/08/14 11:11:00;;;;;;;7.82;6.90;;;;;;;29.09;52.22;100057.59;6257621;28;20041;-95
2022/08/14 11:14:06;;;;;;;8.05;6.45;;;;;;;29.22;50.41;100053.69;6262496;28;20052;-96
2022/08/14 11:17:12;;;;;;;7.32;6.30;;;;;;;29.09;51.42;100055.75;6251539;28;20045;-95
2022/08/14 11:20:20;;;;;;;11.45;6.45;;;;;;;28.93;51.19;100044.13;6246529;28;21427;-95
2022/08/14 11:23:30;;;;;;;7.25;6.05;;;;;;;28.95;53.57;100047.34;6256998;28;20036;-95
2022/08/14 11:26:39;;;;;;;7.32;6.15;;;;;;;29.14;51.54;100045.13;6246538;28;20162;-95
2022/08/14 11:29:43;;;;;;;7.95;6.60;;;;;;;29.23;52.63;100039.31;6253218;28;20056;-96
2022/08/14 11:32:47;;;;;;;8.65;6.75;;;;;;;29.48;50.23;100036.78;6258904;28;20048;-94
2022/08/14 11:35:50;;;;;;;6.78;6.00;;;;;;;29.70;51.06;100026.00;6282347;28;20048;-94
2022/08/14 11:38:51;;;;;;;9.13;6.93;;;;;;;30.28;48.07;100031.28;6250782;28;20037;-95
2022/08/14 11:41:56;;;;;;;7.88;6.18;;;;;;;30.63;46.95;100030.53;6249884;28;20152;-95
2022/08/14 11:45:03;;;;;;;7.00;6.13;;;;;;;30.99;46.12;100024.41;6249180;28;20322;-95
2022/08/14 11:48:21;;;;;;;9.30;6.70;;;;;;;31.38;46.59;100019.25;6254767;28;20044;-95
2022/08/14 11:51:53;;;;;;;6.38;5.78;;;;;;;31.40;46.19;100024.34;6259354;28;20060;-95
2022/08/14 11:54:57;;;;;;;8.00;6.45;;;;;;;31.28;44.76;100013.91;6289692;28;20075;-95
2022/08/14 11:58:10;;;;;;;7.40;6.57;;;;;;;31.19;45.92;100010.19;6300682;28;20456;-96
2022/08/14 12:01:31;;;;;;;7.72;6.35;;;;;;;31.47;44.41;100003.47;6274587;28;20040;-95
2022/08/14 12:04:52;;;;;;;7.80;6.03;;;;;;;31.66;44.48;100001.00;6261346;28;20430;-95
2022/08/14 12:07:57;;;;;;;8.02;6.13;;;;;;;31.33;44.01;99998.66;6268622;28;20564;-96
2022/08/14 12:11:06;;;;;;;8.15;6.72;;;;;;;31.15;44.72;99987.75;6250263;28;20048;-94
2022/08/14 12:14:11;;;;;;;6.90;6.20;;;;;;;31.45;44.11;99992.22;6288253;28;20179;-95
2022/08/14 12:17:41;;;;;;;7.63;6.88;;;;;;;31.83;43.47;99985.38;6265306;28;20095;-95
2022/08/14 12:20:49;;;;;;;;;;;;;;;32.07;44.25;99982.03;6269165;28;20056;-96
2022/08/14 12:24:03;;;;;;;8.90;6.47;;;;;;;31.71;42.55;99980.34;6247130;28;20413;-96
2022/08/14 12:27:11;;;;;;;7.75;7.00;;;;;;;31.92;42.99;99978.34;6253752;28;20474;-96
2022/08/14 12:30:41;;;;;;;7.60;6.43;;;;;;;32.42;42.09;99975.63;6257303;28;20077;-95
2022/08/14 12:34:03;;;;;;;7.28;6.28;;;;;;;32.93;41.40;99975.22;6255451;28;20098;-96
2022/08/14 12:37:11;;;;;;;7.50;6.80;;;;;;;33.27;40.93;99968.16;6240852;28;20033;-94
2022/08/14 12:40:15;;;;;;;9.65;7.30;;;;;;;33.40;38.92;99962.13;6249609;28;20076;-96
2022/08/14 12:43:22;;;;;;;7.43;6.70;;;;;;;32.90;39.58;99964.28;6247939;28;20436;-95
2022/08/14 12:46:32;;;;;;;7.00;6.25;;;;;;;32.23;41.22;99950.63;6263869;28;20063;-96
2022/08/14 12:49:35;;;;;;;6.72;6.13;;;;;;;32.35;41.48;99951.06;6265670;28;20044;-96
2022/08/14 12:52:40;;;;;;;7.40;6.70;;;;;;;32.71;40.33;99940.84;6306045;28;20457;-95
2022/08/14 12:56:03;;;;;;;7.50;6.53;;;;;;;33.03;40.20;99931.44;6260796;28;20049;-96
2022/08/14 12:59:29;;;;;;;7.43;6.70;;;;;;;33.36;39.71;99934.25;6248707;28;20033;-96
2022/08/14 13:02:37;;;;;;;7.45;6.43;;;;;;;33.47;39.96;99922.31;6253532;28;20052;-96
2022/08/14 13:05:40;;;;;;;9.00;6.78;;;;;;;33.69;38.77;99929.84;6293382;28;20048;-95
2022/08/14 13:08:42;;;;;;;7.80;7.10;;;;;;;33.77;38.88;99913.06;6257873;28;20049;-96
2022/08/14 13:11:55;;;;;;;7.35;6.47;;;;;;;33.88;39.31;99906.44;6259398;28;20522;-96
2022/08/14 13:15:18;;;;;;;7.82;6.45;;;;;;;33.86;38.46;99910.50;6243247;28;20412;-96
2022/08/14 13:18:22;;;;;;;7.40;6.63;;;;;;;33.77;38.30;99901.53;6252314;28;20524;-96
2022/08/14 13:21:26;;;;;;;7.43;6.72;;;;;;;33.76;39.26;99895.34;6251716;28;20437;-95
2022/08/14 13:24:30;;;;;;;7.78;7.00;;;;;;;34.05;38.63;99887.13;6252312;28;20303;-96
2022/08/14 13:27:35;;;;;;;7.43;6.72;;;;;;;33.88;38.44;99882.28;6255023;28;20836;-95
2022/08/14 13:30:44;;;;;;;8.85;7.30;;;;;;;33.37;39.91;99879.53;6250004;28;20123;-96
2022/08/14 13:33:46;;;;;;;8.45;7.43;;;;;;;33.56;38.89;99877.66;6246890;28;20052;-96
2022/08/14 13:36:48;;;;;;;9.05;7.00;;;;;;;33.91;38.08;99880.91;6254618;28;20499;-95
2022/08/14 13:40:00;;;;;;;7.25;6.65;;;;;;;34.33;37.57;99868.41;6239254;28;20089;-96
2022/08/14 13:43:07;;;;;;;7.78;6.88;;;;;;;34.70;38.16;99864.78;6242218;28;20112;-95
2022/08/14 13:46:09;;;;;;;7.47;6.57;;;;;;;34.42;37.58;99861.25;6278249;28;20119;-96
2022/08/14 13:49:13;;;;;;;7.43;6.70;;;;;;;34.86;37.62;99851.06;6251563;28;20041;-96
2022/08/14 13:52:18;;;;;;;8.00;7.20;;;;;;;35.18;35.37;99850.16;6260855;28;20072;-96
2022/08/14 13:55:43;;;;;;;8.15;7.05;;;;;;;35.42;35.27;99852.56;6260457;28;20128;-96
2022/08/14 13:58:57;;;;;;;8.60;6.90;;;;;;;35.56;35.32;99841.78;6277643;28;20040;-96
2022/08/14 14:02:07;;;;;;;8.25;7.55;;;;;;;34.88;36.27;99840.78;6291378;28;20092;-96
2022/08/14 14:05:13;;;;;;;8.38;7.13;;;;;;;34.84;37.12;99835.22;6250317;28;20412;-95
2022/08/14 14:08:19;;;;;;;7.65;6.85;;;;;;;34.86;36.63;99838.41;6266451;28;20057;-95
2022/08/14 14:11:45;;;;;;;7.38;6.68;;;;;;;34.42;37.82;99831.69;6264444;28;20115;-96
2022/08/14 14:14:54;;;;;;;7.75;7.05;;;;;;;34.32;37.41;99839.94;6287681;28;20194;-95
2022/08/14 14:17:58;;;;;;;8.13;7.32;;;;;;;34.01;38.54;99832.41;6269720;28;20406;-95
2022/08/14 14:21:01;;;;;;;7.32;6.63;;;;;;;33.70;38.26;99825.94;6264787;28;20083;-94
2022/08/14 14:24:04;;;;;;;7.72;7.03;;;;;;;33.50;38.69;99822.44;6249096;28;20090;-95
2022/08/14 14:27:08;;;;;;;8.35;7.50;;;;;;;33.52;39.58;99817.59;6254552;28;20050;-95
2022/08/14 14:30:31;;;;;;;8.75;7.13;;;;;;;33.91;38.49;99805.69;6243492;28;20052;-95
2022/08/14 14:34:03;;;;;;;9.10;7.13;;;;;;;34.38;36.56;99811.09;6263145;28;20394;-94
2022/08/14 14:37:14;;;;;;;9.38;7.28;;;;;;;34.34;36.76;99805.53;6254675;28;20040;-95
2022/08/14 14:40:16;;;;;;;7.78;6.95;;;;;;;34.20;37.34;99813.56;6257195;28;20044;-94
2022/08/14 14:43:43;;;;;;;7.75;7.00;;;;;;;34.10;36.93;99813.75;6256337;28;20051;-94
2022/08/14 14:46:49;;;;;;;8.02;7.22;;;;;;;34.23;37.34;99806.78;6255337;28;20038;-95
2022/08/14 14:49:54;;;;;;;7.00;6.30;;;;;;;34.39;37.45;99807.31;6246306;28;20041;-95
2022/08/14 14:52:57;;;;;;;7.03;6.25;;;;;;;34.49;35.78;99791.78;6267461;28;20136;-95